NFFNNFNA

Guest
Details From NFFN - Nadi Intl
To NFNA - Nausori Intl
Flight Number -
Tags Decoded
Created
Modified
Stats Distance 131 nm / 242 km
Max Altitude 0 ft / 0 m
Waypoints 3
Social Downloads 3
Likes 0
Share VATSIM

Download

Looking for another format? Having issues loading an existing format? Contact us
Advertisement - Login to hide

Notes

Decoded

Route

NFFN EXORA NFNA

ID Type Via Altitude Latitude Longitude Leg Dist Tot Dist Heading (true) Name
O NFFN APT - 0 ft / 0 m -17.75352˚ 177.43591˚ - 0 nm - -
EXORA FIX - 0 ft / 0 m -17.91333˚ 179.12667˚ 97 nm 97 nm 96° / 95° -
O NFNA APT - 0 ft / 0 m -18.04050˚ 178.55091˚ 33 nm 130 nm 257° / 257° -

Altitude Profile

Advertisement - Login to hide

NFFN

Details ICAO NFFN (NAN)
Name Nadi Intl
Region Fiji and Tonga
Timezone Pacific/Fiji (UTC+13.0)
Stats Elevation 59 ft / 18 m (AMSL)
Location -17.758366° 177.442147°
Runways 2
Magnetic Variation 12.400° E

METAR

NFFN 170200Z 10009KT 9999 SCT027 BKN045 29/21 Q1005 NOSIG

Decode

TAF

TAF NFFN 162307Z 1700/1724 10010KT 9999 SCT028 SCT040 PROB30 TEMPO 1702/1706 5000 TSRA BKN016 FEW018CB

Decode

Departure Runways

ID Width Length Bearing (true) Bearing (mag) Surface Threshold Offset Overrun Length
02 151 ft / 46 m 10,529 ft / 3,209 m 37.50° 25.10° Asphalt 0 ft / 0 m 0 ft / 0 m
09 151 ft / 46 m 6,989 ft / 2,130 m 104.20° 91.80° Asphalt 0 ft / 0 m 95 ft / 29 m
20 151 ft / 46 m 10,529 ft / 3,209 m 217.50° 205.10° Asphalt 0 ft / 0 m 0 ft / 0 m
27 151 ft / 46 m 6,989 ft / 2,130 m 284.20° 271.80° Asphalt 0 ft / 0 m 0 ft / 0 m

NFNA

Details ICAO NFNA (SUV)
Name Nausori Intl
Region Fiji and Tonga
Timezone Pacific/Fiji (UTC+13.0)
Stats Elevation 17 ft / 5 m (AMSL)
Location -18.043328° 178.559247°
Runways 1
Magnetic Variation 12.528° E

METAR

NFNA 170200Z 13008KT 9999 SCT020 BKN045 27/22 Q1007

Decode

TAF

TAF NFNA 162307Z 1700/1724 13007KT 9999 -SHRA SCT018 BKN045

Decode

Destination Runways

ID Width Length Bearing (true) Bearing (mag) Surface Threshold Offset Overrun Length
10 98 ft / 30 m 6,130 ft / 1,869 m 109.30° 96.77° Asphalt 404 ft / 123 m 0 ft / 0 m
28 98 ft / 30 m 6,130 ft / 1,869 m 289.30° 276.77° Asphalt 0 ft / 0 m 295 ft / 90 m

Popular Alternatives